Muskogee, OK

4:55 AM CDT on September 15, 2014 (GMT -0500)
APRSWXNET Muskkogee OK US | Change Station
CLOSE
Current Station
Personal Weather Station
Location: Muskogee, OK
Elevation: 582 ft
Nearby Weather Stations

Elev 582 ft 35.75 °N, 95.33 °W | Updated 26 minutes ago

Rain
Rain
67 °F
Feels Like 67 °F
N
0
Wind Variable Wind from SE
Gusts 1.0 mph

Today
High -- | Low -- °F
--% Chance of Precip.
Yesterday
High -- | Low -- °F
Precip. -- in
7:04 AM 7:28 PM
Waning Gibbous, 57% visible
Pressure 30.13 in
Visibility 10.0 miles
Clouds Few 12000 ft
Dew Point 65 °F
Humidity 94%
Rainfall 0.05 in
Snow Depth Not available.
UV 0 out of 12
Pollen 9.70 out of 12
Air Quality Not available.
Flu Activity Not available.
METAR KMKO 150853Z AUTO 15003KT 10SM FEW120 19/18 A3015 RMK AO2 RAB13E38 SLP203 P0000 60003 T01890178 51002 $

More Conditions Fewer Conditions

Pressure 30.13 in
Visibility 10.0 miles
Clouds Few 12000 ft
Dew Point 65 °F
Humidity 94%
Rainfall 0.05 in
Snow Depth Not available.
UV 0 out of 12
Pollen 9.70 out of 12
Air Quality Not available.
Flu Activity Not available.
METAR KMKO 150853Z AUTO 15003KT 10SM FEW120 19/18 A3015 RMK AO2 RAB13E38 SLP203 P0000 60003 T01890178 51002 $

More Conditions Fewer Conditions

Nowcast | as of 3:46 am CDT on September 15, 2014

At 3:46 am...National Weather Service Doppler radars continued to indicate scattered light showers across portions of eastern Oklahoma and western Arkansas. Areal coverage of the showers had increased over the past couple of hours. The showers were located along and north of Interstate 40...and were moving to the east at 25 mph. Through 6 am...additional light showers will develop primarily across northeast Oklahoma and far northwest Arkansas...with the ongoing showers also remaining in the area. Other showers in south central Oklahoma may move into southeast Oklahoma as well. Rainfall amounts should only be a few hundredths at any one location.

×

10-Day Weather Forecast

Almanac

Astronomy

Sep. 15, 2014 Rise Set
Actual Time 7:04 AM CDT 7:28 PM CDT
Civil Twilight 6:38 AM CDT 7:54 PM CDT
Nautical Twilight 6:08 AM CDT 8:24 PM CDT
Astronomical Twilight 5:37 AM CDT 8:54 PM CDT
Moon No Moon Rise 1:53 PM CDT
Length of Visible Light 13h 15m
Length of Day
12h 24m
Tomorrow will be 2m 14s shorter.
Waning Gibbous, 57% of the Moon is Illuminated
Today
Waning Gibbous
Sep 15
Last Quarter
Sep 24
New
Oct 1
First Quarter
Oct 8
Full

Today's Extremes

State Highs State Lows

Community

WunderPhotos

Upload Photos

1,753,427 photos uploaded!

Nearby

Snow Depth

Station Depth Elevation
No new snow has been reported.

Earthquake Activity

City Distance Mag. Time & Date
Perry, Oklahoma 110 miles 3.3 11:10 PM CDT
2014-09-13
Perry, Oklahoma 106 miles 2.8 10:52 PM CDT
2014-09-13
Langston, Oklahoma 111 miles 2.5 1:28 PM CDT
2014-09-12
Perry, Oklahoma 109 miles 3.7 9:41 AM CDT
2014-09-12
Minimum magnitude displayed is 2.5.

Coastal Water Temperatures

Place Temperature
No Stations Reporting

Nearby Weather Stations